Windy Point, Colorado
Current Conditions -  °F | °C
As of 3:55 AM on Wednesday 22 Oct 2014 (Local Time) from KGUC Reporting Station
Broken Clouds Broken Clouds  
Wind Chill: 31°   Ceiling: 1400
Heat Index: 36°   Visibility: 10mi
Dew Point: 30°   Wind: 6mph
Humidity: 81%   Direction: 50°NE
Pressure: 30.23"   Gusts: NA
Location:  38.4566°N, 107.296°W
Report Text: KGUC 220955Z AUTO 05005KT 10SM BKN014 BKN050 02/M01 A3023 RMK AO1 LTG DSNT NW
Loading
Personal Weather Stations






























Interactive Weather Map
Tropical Storm Tracking
New forecast layout! Learn more

10-Day Weather Forecast

Advertisements
Track Severe Weather on mobile